createdAt,value
2019-01-18T00:00:15.473Z,4.80
2019-01-18T00:02:43.916Z,5.30
2019-01-18T00:05:12.472Z,5.30
2019-01-18T00:07:40.934Z,4.63
2019-01-18T00:10:10.230Z,4.47
2019-01-18T00:12:38.728Z,4.47
2019-01-18T00:15:09.817Z,4.17
2019-01-18T00:17:38.315Z,4.17
2019-01-18T00:20:09.921Z,3.80
2019-01-18T00:22:38.363Z,3.90
2019-01-18T00:25:08.694Z,3.93
2019-01-18T00:27:37.226Z,4.10
2019-01-18T00:30:20.008Z,4.03
2019-01-18T00:32:48.521Z,3.50
2019-01-18T00:35:17.067Z,3.50
2019-01-18T00:37:45.531Z,3.40
2019-01-18T00:40:18.810Z,3.10
2019-01-18T00:42:47.559Z,3.97
2019-01-18T00:45:17.351Z,3.77
2019-01-18T00:47:45.806Z,3.70
2019-01-18T00:50:20.011Z,3.07
2019-01-18T00:52:49.663Z,3.77
2019-01-18T00:55:18.555Z,3.43
2019-01-18T00:57:47.004Z,3.07
2019-01-18T01:00:20.962Z,3.33
2019-01-18T01:02:49.431Z,3.40
2019-01-18T01:05:18.426Z,3.50
2019-01-18T01:07:46.980Z,2.93
2019-01-18T01:10:15.574Z,3.20
2019-01-18T01:12:44.193Z,3.23
2019-01-18T01:15:17.308Z,3.23
2019-01-18T01:17:46.214Z,3.50
2019-01-18T01:20:17.015Z,3.00
2019-01-18T01:22:45.540Z,3.10
2019-01-18T01:25:14.530Z,2.97
2019-01-18T01:27:43.133Z,3.13
2019-01-18T01:30:14.995Z,3.30
2019-01-18T01:32:43.602Z,3.20
2019-01-18T01:35:12.187Z,3.33
2019-01-18T01:37:40.717Z,3.50
2019-01-18T01:40:12.071Z,3.30
2019-01-18T01:42:40.528Z,3.83
2019-01-18T01:45:10.532Z,2.97
2019-01-18T01:47:39.025Z,3.53
2019-01-18T01:50:13.212Z,3.57
2019-01-18T01:52:41.746Z,3.20
2019-01-18T01:55:10.440Z,3.23
2019-01-18T01:57:38.977Z,3.50
2019-01-18T02:00:13.081Z,3.80
2019-01-18T02:02:41.537Z,3.70
2019-01-18T02:05:10.139Z,3.37
2019-01-18T02:07:38.620Z,3.30
2019-01-18T02:10:10.437Z,3.73
2019-01-18T02:12:39.058Z,3.40
2019-01-18T02:15:10.552Z,3.33
2019-01-18T02:17:39.179Z,3.80
2019-01-18T02:20:16.503Z,3.87
2019-01-18T02:22:45.114Z,3.77
2019-01-18T02:25:13.896Z,3.93
2019-01-18T02:27:43.157Z,3.30
2019-01-18T02:30:14.795Z,3.57
2019-01-18T02:32:43.323Z,3.40
2019-01-18T02:35:11.848Z,3.30
2019-01-18T02:37:40.311Z,3.50
2019-01-18T02:40:11.563Z,3.83
2019-01-18T02:42:40.014Z,3.57
2019-01-18T02:45:11.718Z,3.57
2019-01-18T02:47:40.181Z,3.37
2019-01-18T02:50:10.947Z,4.17
2019-01-18T02:52:39.470Z,3.33
2019-01-18T02:55:09.737Z,3.63
2019-01-18T02:57:38.287Z,3.70
2019-01-18T03:00:12.419Z,3.73
2019-01-18T03:02:40.941Z,3.20
2019-01-18T03:05:11.644Z,3.70
2019-01-18T03:07:40.159Z,3.43
2019-01-18T03:10:11.783Z,4.80
2019-01-18T03:12:40.227Z,4.67
2019-01-18T03:15:09.605Z,3.80
2019-01-18T03:17:38.079Z,5.57
2019-01-18T03:20:09.772Z,3.97
2019-01-18T03:22:38.409Z,3.47
2019-01-18T03:25:12.122Z,4.67
2019-01-18T03:27:40.640Z,4.93
2019-01-18T03:30:19.121Z,3.93
2019-01-18T03:32:44.758Z,4.03
2019-01-18T03:35:15.358Z,4.37
2019-01-18T03:37:43.814Z,4.30
2019-01-18T03:40:14.729Z,3.30
2019-01-18T03:42:43.549Z,3.87
2019-01-18T03:45:14.136Z,3.47
2019-01-18T03:47:42.654Z,3.60
2019-01-18T03:50:14.479Z,3.70
2019-01-18T03:52:43.077Z,3.40
2019-01-18T03:55:11.709Z,3.63
2019-01-18T03:57:40.243Z,4.10
2019-01-18T04:00:14.491Z,3.83
2019-01-18T04:02:43.020Z,3.53
2019-01-18T04:05:12.195Z,3.70
2019-01-18T04:07:40.635Z,4.10
2019-01-18T04:10:12.506Z,3.40
2019-01-18T04:12:40.963Z,3.67
2019-01-18T04:15:12.266Z,3.60
2019-01-18T04:17:40.733Z,3.97
2019-01-18T04:20:12.103Z,3.93
2019-01-18T04:22:40.558Z,3.83
2019-01-18T04:25:12.863Z,3.73
2019-01-18T04:27:41.325Z,3.80
2019-01-18T04:30:20.655Z,3.83
2019-01-18T04:32:49.411Z,3.67
2019-01-18T04:35:18.205Z,3.17
2019-01-18T04:37:46.811Z,3.70
2019-01-18T04:40:27.361Z,3.17
2019-01-18T04:42:56.556Z,3.50
2019-01-18T04:45:25.121Z,3.87
2019-01-18T04:47:53.585Z,3.40
2019-01-18T04:50:24.080Z,3.40
2019-01-18T04:52:52.669Z,3.50
2019-01-18T04:55:21.503Z,3.80
2019-01-18T04:57:50.035Z,3.77
2019-01-18T05:00:20.940Z,4.17
2019-01-18T05:02:49.405Z,4.00
2019-01-18T05:05:17.841Z,3.60
2019-01-18T05:07:46.366Z,3.63
2019-01-18T05:10:17.518Z,4.00
2019-01-18T05:12:45.999Z,3.53
2019-01-18T05:15:19.781Z,3.77
2019-01-18T05:17:48.223Z,3.90
2019-01-18T05:20:17.447Z,3.90
2019-01-18T05:22:45.962Z,3.70
2019-01-18T05:25:14.821Z,3.93
2019-01-18T05:29:02.585Z,4.23
2019-01-18T05:31:31.037Z,4.90
2019-01-18T05:33:59.452Z,4.53
2019-01-18T05:36:27.991Z,4.60
2019-01-18T05:38:56.507Z,5.20
2019-01-18T05:41:24.958Z,5.07
2019-01-18T05:43:53.414Z,4.77
2019-01-18T05:46:21.884Z,4.87
2019-01-18T05:48:50.461Z,4.70
2019-01-18T05:51:19.213Z,5.00
2019-01-18T05:53:48.008Z,4.60
2019-01-18T05:56:16.497Z,5.03
2019-01-18T05:58:45.036Z,4.63
2019-01-18T06:01:13.493Z,4.27
2019-01-18T06:03:41.936Z,4.37
2019-01-18T06:06:10.448Z,4.43
2019-01-18T06:08:38.943Z,4.83
2019-01-18T06:11:07.542Z,4.30
2019-01-18T06:13:36.063Z,3.90
2019-01-18T06:16:04.695Z,3.60
2019-01-18T06:18:33.143Z,3.80
2019-01-18T06:21:01.689Z,3.70
2019-01-18T06:23:30.284Z,4.07
2019-01-18T06:25:58.828Z,3.90
2019-01-18T06:28:27.284Z,3.93
2019-01-18T06:31:01.584Z,4.07
2019-01-18T06:33:26.085Z,3.63
2019-01-18T06:35:54.537Z,4.03
2019-01-18T06:38:22.970Z,3.90
2019-01-18T06:40:52.307Z,3.90
2019-01-18T06:43:20.874Z,4.07
2019-01-18T06:45:49.699Z,4.53
2019-01-18T06:48:19.456Z,4.23
2019-01-18T06:50:47.997Z,4.93
2019-01-18T06:53:16.456Z,4.20
2019-01-18T06:55:44.918Z,4.73
2019-01-18T06:58:13.377Z,4.90
2019-01-18T07:00:41.835Z,5.57
2019-01-18T07:03:10.297Z,5.30
2019-01-18T07:05:38.828Z,5.30
2019-01-18T07:08:07.439Z,5.33
2019-01-18T07:10:36.049Z,4.97
2019-01-18T07:13:04.508Z,6.00
2019-01-18T07:15:33.330Z,5.80
2019-01-18T07:18:01.789Z,5.83
2019-01-18T07:20:30.251Z,5.77
2019-01-18T07:22:58.798Z,6.60
2019-01-18T07:25:29.028Z,5.80
2019-01-18T07:27:57.597Z,5.50
2019-01-18T07:30:31.734Z,5.97
2019-01-18T07:33:00.260Z,5.13
2019-01-18T07:35:28.756Z,5.30
2019-01-18T07:37:57.322Z,4.90
2019-01-18T07:40:26.195Z,5.67
2019-01-18T07:42:54.817Z,6.07
2019-01-18T07:45:25.991Z,5.17
2019-01-18T07:47:54.576Z,5.50
2019-01-18T07:50:23.060Z,11.57
2019-01-18T07:52:51.779Z,6.57
2019-01-18T07:55:20.228Z,4.37
2019-01-18T07:57:48.926Z,4.90
2019-01-18T08:00:20.263Z,5.77
2019-01-18T08:02:48.818Z,6.50
2019-01-18T08:05:17.846Z,6.20
2019-01-18T08:07:46.361Z,5.10
2019-01-18T08:10:17.164Z,5.73
2019-01-18T08:12:45.703Z,5.43
2019-01-18T08:15:16.463Z,4.93
2019-01-18T08:17:44.984Z,6.33
2019-01-18T08:20:16.572Z,5.37
2019-01-18T08:22:45.033Z,5.50
2019-01-18T08:25:15.149Z,5.33
2019-01-18T08:27:43.847Z,6.23
2019-01-18T08:30:29.623Z,5.93
2019-01-18T08:32:58.167Z,6.07
2019-01-18T08:35:27.567Z,5.20
2019-01-18T08:37:56.034Z,5.03
2019-01-18T08:40:26.923Z,5.20
2019-01-18T08:42:55.398Z,4.90
2019-01-18T08:45:36.312Z,4.93
2019-01-18T08:48:06.236Z,5.53
2019-01-18T08:50:34.941Z,5.50
2019-01-18T08:53:03.392Z,5.33
2019-01-18T08:55:31.841Z,4.97
2019-01-18T08:58:00.380Z,4.67
2019-01-18T09:00:31.142Z,5.30
2019-01-18T09:02:59.606Z,5.37
2019-01-18T09:05:29.012Z,4.50
2019-01-18T09:07:57.613Z,3.57
2019-01-18T09:10:31.630Z,3.73
2019-01-18T09:13:00.117Z,3.03
2019-01-18T09:15:28.624Z,3.53
2019-01-18T09:17:57.227Z,3.70
2019-01-18T09:20:27.791Z,4.53
2019-01-18T09:22:56.432Z,4.13
2019-01-18T09:25:25.018Z,5.10
2019-01-18T09:27:55.134Z,4.87
2019-01-18T09:30:26.289Z,4.23
2019-01-18T09:32:55.067Z,3.60
2019-01-18T09:35:24.072Z,3.40
2019-01-18T09:37:53.646Z,3.63
2019-01-18T09:40:27.497Z,3.23
2019-01-18T09:42:55.984Z,3.07
2019-01-18T09:45:24.690Z,3.30
2019-01-18T09:47:53.215Z,3.23
2019-01-18T09:50:24.391Z,2.83
2019-01-18T09:52:52.918Z,2.72
2019-01-18T09:55:21.738Z,2.77
2019-01-18T09:57:53.650Z,2.27
2019-01-18T10:00:30.619Z,2.60
2019-01-18T10:02:59.387Z,2.70
2019-01-18T10:05:28.110Z,3.20
2019-01-18T10:07:56.640Z,3.42
2019-01-18T10:10:25.280Z,3.72
2019-01-18T10:12:53.742Z,3.00
2019-01-18T10:15:33.581Z,3.20
2019-01-18T10:18:02.209Z,2.80
2019-01-18T10:20:30.839Z,2.67
2019-01-18T10:22:59.477Z,2.33
2019-01-18T10:25:28.043Z,1.90
2019-01-18T10:27:56.507Z,2.30
2019-01-18T10:30:26.406Z,2.10
2019-01-18T10:32:54.947Z,1.90
2019-01-18T10:35:25.296Z,2.00
2019-01-18T10:37:56.562Z,2.20
2019-01-18T10:40:25.191Z,2.05
2019-01-18T10:42:53.967Z,2.17
2019-01-18T10:45:22.481Z,2.02
2019-01-18T10:47:51.258Z,2.10
2019-01-18T10:50:25.658Z,2.00
2019-01-18T10:52:54.198Z,2.00
2019-01-18T10:55:22.802Z,2.33
2019-01-18T10:57:51.256Z,2.90
2019-01-18T11:00:28.283Z,2.35
2019-01-18T11:02:56.852Z,2.13
2019-01-18T11:05:25.778Z,2.33
2019-01-18T11:07:54.364Z,2.00
2019-01-18T11:10:23.025Z,2.47
2019-01-18T11:12:51.720Z,1.87
2019-01-18T11:15:21.088Z,1.83
2019-01-18T11:17:49.653Z,2.00
2019-01-18T11:20:20.839Z,4.37
2019-01-18T11:22:49.930Z,3.20
2019-01-18T11:25:18.390Z,2.27
2019-01-18T11:27:46.860Z,2.00
2019-01-18T11:30:16.664Z,2.80
2019-01-18T11:32:45.202Z,2.37
2019-01-18T11:35:14.076Z,4.10
2019-01-18T11:37:42.665Z,4.10
2019-01-18T11:40:14.703Z,2.50
2019-01-18T11:42:43.290Z,4.10
2019-01-18T11:45:13.025Z,3.57
2019-01-18T11:47:41.599Z,3.30
2019-01-18T11:50:24.693Z,4.43
2019-01-18T11:52:53.230Z,3.33
2019-01-18T11:55:21.741Z,2.00
2019-01-18T11:57:50.196Z,1.40
2019-01-18T12:00:27.417Z,2.10
2019-01-18T12:02:55.928Z,1.90
2019-01-18T12:05:24.621Z,1.90
2019-01-18T12:07:54.020Z,1.77
2019-01-18T12:10:27.586Z,2.33
2019-01-18T12:12:56.198Z,3.17
2019-01-18T12:15:25.667Z,2.57
2019-01-18T12:17:54.235Z,2.17
2019-01-18T12:20:25.443Z,2.50
2019-01-18T12:22:54.048Z,2.17
2019-01-18T12:25:22.504Z,1.90
2019-01-18T12:27:50.959Z,1.70
2019-01-18T12:30:28.221Z,1.90
2019-01-18T12:32:56.767Z,1.70
2019-01-18T12:35:25.356Z,1.80
2019-01-18T12:37:53.907Z,1.50
2019-01-18T12:40:22.426Z,1.60
2019-01-18T12:42:50.918Z,1.60
2019-01-18T12:45:21.201Z,1.60
2019-01-18T12:47:49.735Z,1.97
2019-01-18T12:50:21.242Z,2.30
2019-01-18T12:52:49.769Z,1.67
2019-01-18T12:55:18.342Z,1.50
2019-01-18T12:57:46.945Z,2.23
2019-01-18T13:00:18.664Z,2.10
2019-01-18T13:02:47.271Z,1.80
2019-01-18T13:05:18.655Z,2.20
2019-01-18T13:07:47.914Z,1.93
2019-01-18T13:10:16.507Z,1.20
2019-01-18T13:12:44.958Z,1.50
2019-01-18T13:15:16.575Z,1.33
2019-01-18T13:17:45.020Z,1.93
2019-01-18T13:20:13.558Z,1.67
2019-01-18T13:22:42.170Z,2.27
2019-01-18T13:25:13.637Z,2.40
2019-01-18T13:27:42.315Z,2.60
2019-01-18T13:30:15.928Z,1.60
2019-01-18T13:32:44.721Z,1.40
2019-01-18T13:35:13.352Z,1.57
2019-01-18T13:37:41.886Z,1.87
2019-01-18T13:40:13.498Z,3.20
2019-01-18T13:42:42.012Z,2.50
2019-01-18T13:45:12.352Z,2.47
2019-01-18T13:47:41.275Z,1.90
2019-01-18T13:50:12.772Z,2.00
2019-01-18T13:52:41.255Z,1.37
2019-01-18T13:55:13.132Z,1.50
2019-01-18T13:57:41.679Z,1.30
2019-01-18T14:00:12.893Z,1.30
2019-01-18T14:02:41.407Z,1.47
2019-01-18T14:05:12.004Z,1.83
2019-01-18T14:07:40.634Z,1.53
2019-01-18T14:10:18.101Z,1.20
2019-01-18T14:12:48.332Z,2.00
2019-01-18T14:15:18.761Z,1.77
2019-01-18T14:17:47.348Z,1.60
2019-01-18T14:20:20.949Z,1.87
2019-01-18T14:22:48.442Z,1.87
2019-01-18T14:25:16.994Z,1.90
2019-01-18T14:27:45.685Z,1.30
2019-01-18T14:30:17.075Z,1.33
2019-01-18T14:32:45.656Z,1.60
2019-01-18T14:35:14.206Z,1.47
2019-01-18T14:37:42.767Z,1.73
2019-01-18T14:40:13.963Z,1.60
2019-01-18T14:42:42.494Z,1.30
2019-01-18T14:45:14.063Z,2.10
2019-01-18T14:47:42.670Z,1.90
2019-01-18T14:50:15.602Z,1.80
2019-01-18T14:52:44.420Z,2.43
2019-01-18T14:55:13.246Z,2.30
2019-01-18T14:57:42.056Z,2.93
2019-01-18T15:00:26.131Z,2.90
2019-01-18T15:02:54.668Z,2.40
2019-01-18T15:05:23.124Z,2.50
2019-01-18T15:07:51.715Z,2.63
2019-01-18T15:10:22.107Z,3.80
2019-01-18T15:12:53.125Z,3.07
2019-01-18T15:15:21.707Z,4.13
2019-01-18T15:17:51.056Z,4.53
2019-01-18T15:20:31.062Z,3.27
2019-01-18T15:22:59.847Z,4.30
2019-01-18T15:25:28.684Z,3.77
2019-01-18T15:27:58.190Z,4.20
2019-01-18T15:30:29.123Z,5.50
2019-01-18T15:33:10.783Z,7.60
2019-01-18T15:35:39.931Z,13.67
2019-01-18T15:38:08.666Z,14.47
2019-01-18T15:40:40.527Z,15.40
2019-01-18T15:43:48.430Z,15.67
2019-01-18T15:46:05.522Z,13.07
2019-01-18T15:48:34.201Z,24.03
2019-01-18T15:51:03.233Z,22.30
2019-01-18T15:53:32.269Z,17.97
2019-01-18T15:56:01.228Z,14.30
2019-01-18T15:58:29.885Z,15.90
2019-01-18T16:00:58.640Z,12.27
2019-01-18T16:03:27.192Z,9.80
2019-01-18T16:05:55.633Z,11.07
2019-01-18T16:08:24.098Z,12.23
2019-01-18T16:10:52.616Z,12.00
2019-01-18T16:13:21.177Z,9.70
2019-01-18T16:16:01.662Z,7.73
2019-01-18T16:18:30.131Z,7.47
2019-01-18T16:20:58.652Z,7.93
2019-01-18T16:23:27.275Z,9.03
2019-01-18T16:25:56.092Z,9.27
2019-01-18T16:28:24.703Z,11.80
2019-01-18T16:30:53.174Z,10.27
2019-01-18T16:33:23.462Z,9.13
2019-01-18T16:35:52.396Z,8.73
2019-01-18T16:38:21.113Z,5.37
2019-01-18T16:40:49.616Z,3.97
2019-01-18T16:43:27.017Z,4.87
2019-01-18T16:45:55.833Z,6.03
2019-01-18T16:48:24.290Z,6.07
2019-01-18T16:50:52.836Z,7.10
2019-01-18T16:53:21.434Z,6.77
2019-01-18T16:55:49.899Z,6.17
2019-01-18T16:58:18.542Z,6.60
2019-01-18T17:00:50.304Z,7.07
2019-01-18T17:03:19.015Z,9.13
2019-01-18T17:05:47.682Z,9.70
2019-01-18T17:08:16.671Z,9.37
2019-01-18T17:10:45.247Z,7.50
2019-01-18T17:13:13.802Z,6.63
2019-01-18T17:15:42.387Z,7.67
2019-01-18T17:18:10.921Z,8.33
2019-01-18T17:21:04.081Z,7.87
2019-01-18T17:23:32.605Z,9.47
2019-01-18T17:26:01.082Z,8.33
2019-01-18T17:28:29.549Z,7.07
2019-01-18T17:30:58.354Z,7.07
2019-01-18T17:33:26.938Z,6.60
2019-01-18T17:36:01.101Z,6.80
2019-01-18T17:38:32.658Z,15.07
2019-01-18T17:41:09.729Z,15.83
2019-01-18T17:43:50.288Z,17.50
2019-01-18T17:46:33.955Z,15.93
2019-01-18T17:49:17.608Z,14.17
2019-01-18T17:51:55.271Z,13.57
2019-01-18T17:54:34.001Z,9.73
2019-01-18T17:57:23.876Z,9.83
2019-01-18T18:00:01.632Z,7.97
2019-01-18T18:02:45.733Z,7.43
2019-01-18T18:05:19.810Z,7.17
2019-01-18T18:07:51.628Z,7.53
2019-01-18T18:10:29.040Z,8.33
2019-01-18T18:13:15.595Z,7.67
2019-01-18T18:15:49.852Z,7.30
2019-01-18T18:18:43.533Z,8.47
2019-01-18T18:21:30.380Z,7.73
2019-01-18T18:24:02.826Z,7.73
2019-01-18T18:27:05.008Z,9.40
2019-01-18T18:29:45.324Z,8.00
2019-01-18T18:32:25.442Z,6.37
2019-01-18T18:35:16.585Z,5.57
2019-01-18T18:38:09.186Z,6.27
2019-01-18T18:40:47.452Z,6.30
2019-01-18T18:43:30.845Z,5.57
2019-01-18T18:46:02.383Z,3.57
2019-01-18T18:48:36.725Z,4.10
2019-01-18T18:51:15.038Z,4.63
2019-01-18T18:53:55.106Z,4.07
2019-01-18T18:56:39.113Z,5.23
2019-01-18T18:59:27.580Z,6.23
2019-01-18T19:02:23.368Z,8.13
2019-01-18T19:04:58.611Z,6.60
2019-01-18T19:08:01.381Z,6.07
2019-01-18T19:10:48.154Z,5.90
2019-01-18T19:13:39.807Z,5.77
2019-01-18T19:16:26.987Z,5.50
2019-01-18T19:19:19.187Z,7.50
2019-01-18T19:22:16.737Z,8.93
2019-01-18T19:24:54.080Z,8.70
2019-01-18T19:27:25.601Z,8.70
2019-01-18T19:30:16.898Z,7.83
2019-01-18T19:32:51.075Z,7.47
2019-01-18T19:35:39.333Z,7.10
2019-01-18T19:38:10.863Z,6.60
2019-01-18T19:40:54.939Z,7.00
2019-01-18T19:43:29.250Z,8.30
2019-01-18T19:46:06.507Z,8.23
2019-01-18T19:48:40.904Z,9.63
2019-01-18T19:51:18.067Z,11.47
2019-01-18T19:53:59.700Z,13.33
2019-01-18T19:56:53.535Z,11.83
2019-01-18T19:59:59.080Z,11.90
2019-01-18T20:02:33.302Z,10.00
2019-01-18T20:05:30.935Z,10.80
2019-01-18T20:08:08.242Z,7.57
2019-01-18T20:11:00.923Z,7.43
2019-01-18T20:13:43.976Z,9.53
2019-01-18T20:16:24.567Z,10.87
2019-01-18T20:19:12.763Z,12.03
2019-01-18T20:22:02.839Z,12.17
2019-01-18T20:24:58.460Z,11.43
2019-01-18T20:27:30.458Z,12.13
2019-01-18T20:30:15.771Z,12.00
2019-01-18T20:32:47.450Z,11.30
2019-01-18T20:35:37.238Z,9.40
2019-01-18T20:38:31.618Z,10.03
2019-01-18T20:41:10.157Z,8.70
2019-01-18T20:43:44.665Z,7.90
2019-01-18T20:46:42.063Z,8.97
2019-01-18T20:49:21.048Z,9.13
2019-01-18T20:51:55.613Z,10.07
2019-01-18T20:54:39.157Z,8.20
2019-01-18T20:57:44.452Z,7.63
2019-01-18T21:00:27.922Z,7.30
2019-01-18T21:03:17.719Z,9.47
2019-01-18T21:06:10.245Z,9.03
2019-01-18T21:08:53.655Z,9.23
2019-01-18T21:11:33.911Z,9.30
2019-01-18T21:14:08.281Z,9.57
2019-01-18T21:16:48.652Z,9.10
2019-01-18T21:19:22.998Z,10.33
2019-01-18T21:22:06.927Z,9.90
2019-01-18T21:24:41.460Z,10.60
2019-01-18T21:27:22.355Z,10.33
2019-01-18T21:30:27.115Z,10.90
2019-01-18T21:33:07.329Z,11.07
2019-01-18T21:35:47.599Z,11.40
2019-01-18T21:38:28.020Z,12.67
2019-01-18T21:41:19.671Z,13.87
2019-01-18T21:44:09.393Z,14.23
2019-01-18T21:46:49.954Z,14.80
2019-01-18T21:49:36.813Z,14.33
2019-01-18T21:52:25.156Z,15.33
2019-01-18T21:55:08.272Z,13.63
2019-01-18T21:57:43.078Z,12.93
2019-01-18T22:00:23.714Z,12.97
2019-01-18T22:03:12.072Z,11.83
2019-01-18T22:05:52.563Z,12.13
2019-01-18T22:08:29.763Z,12.47
2019-01-18T22:11:01.304Z,12.20
2019-01-18T22:13:38.839Z,12.20
2019-01-18T22:16:13.278Z,12.20
2019-01-18T22:18:47.557Z,14.80
2019-01-18T22:21:24.960Z,16.60
2019-01-18T22:24:01.750Z,18.03
2019-01-18T22:26:36.386Z,16.77
2019-01-18T22:29:10.967Z,10.93
2019-01-18T22:31:59.541Z,10.47
2019-01-18T22:34:34.099Z,9.53
2019-01-18T22:37:28.169Z,11.33
2019-01-18T22:40:17.615Z,12.77
2019-01-18T22:42:54.773Z,10.30
2019-01-18T22:45:35.103Z,8.53
2019-01-18T22:48:21.744Z,8.27
2019-01-18T22:51:20.754Z,8.30
2019-01-18T22:54:01.137Z,8.97
2019-01-18T22:56:49.665Z,8.50
2019-01-18T22:59:33.056Z,8.60
2019-01-18T23:02:30.199Z,8.00
2019-01-18T23:05:30.807Z,8.27
2019-01-18T23:08:04.908Z,12.03
2019-01-18T23:10:42.432Z,12.63
2019-01-18T23:13:41.364Z,12.40
2019-01-18T23:16:18.982Z,11.87
2019-01-18T23:19:02.787Z,10.27
2019-01-18T23:21:49.448Z,8.20
2019-01-18T23:24:27.195Z,10.20
2019-01-18T23:27:17.679Z,10.13
2019-01-18T23:29:52.273Z,11.60
2019-01-18T23:32:35.892Z,11.50
2019-01-18T23:35:16.220Z,10.87
2019-01-18T23:38:10.370Z,10.57
2019-01-18T23:40:44.888Z,9.70
2019-01-18T23:43:22.478Z,9.63
2019-01-18T23:45:54.115Z,9.50
2019-01-18T23:48:31.303Z,9.60
2019-01-18T23:51:02.864Z,9.20
2019-01-18T23:53:44.148Z,9.50
2019-01-18T23:56:33.146Z,9.60
2019-01-18T23:59:07.619Z,8.07
